sensor_id;sensor_type;location;lat;lon;timestamp;temperature;humidity
22112;DHT22;11222;50.872;4.312;2023-07-30T00:01:40;16.90;99.90
22112;DHT22;11222;50.872;4.312;2023-07-30T00:04:05;16.90;99.90
22112;DHT22;11222;50.872;4.312;2023-07-30T00:06:31;16.80;99.90
22112;DHT22;11222;50.872;4.312;2023-07-30T00:08:56;16.90;99.90
22112;DHT22;11222;50.872;4.312;2023-07-30T00:11:22;16.90;99.90
22112;DHT22;11222;50.872;4.312;2023-07-30T00:13:48;16.90;99.90
22112;DHT22;11222;50.872;4.312;2023-07-30T00:16:13;16.90;99.90
22112;DHT22;11222;50.872;4.312;2023-07-30T00:18:39;16.90;99.90
22112;DHT22;11222;50.872;4.312;2023-07-30T00:21:05;16.90;99.90
22112;DHT22;11222;50.872;4.312;2023-07-30T00:23:30;16.90;99.90
22112;DHT22;11222;50.872;4.312;2023-07-30T00:25:56;16.90;99.90
22112;DHT22;11222;50.872;4.312;2023-07-30T00:28:22;16.90;99.90
22112;DHT22;11222;50.872;4.312;2023-07-30T00:30:47;16.90;99.90
22112;DHT22;11222;50.872;4.312;2023-07-30T00:33:13;16.80;99.90
22112;DHT22;11222;50.872;4.312;2023-07-30T00:35:38;16.70;99.90
22112;DHT22;11222;50.872;4.312;2023-07-30T00:38:04;16.60;99.90
22112;DHT22;11222;50.872;4.312;2023-07-30T00:40:30;16.60;99.90
22112;DHT22;11222;50.872;4.312;2023-07-30T00:42:55;16.50;99.90
22112;DHT22;11222;50.872;4.312;2023-07-30T00:45:21;16.40;99.90
22112;DHT22;11222;50.872;4.312;2023-07-30T00:47:47;16.40;99.90
22112;DHT22;11222;50.872;4.312;2023-07-30T00:50:14;16.40;99.90
22112;DHT22;11222;50.872;4.312;2023-07-30T00:52:40;16.40;99.90
22112;DHT22;11222;50.872;4.312;2023-07-30T00:55:07;16.50;99.90
22112;DHT22;11222;50.872;4.312;2023-07-30T00:57:34;16.50;99.90
22112;DHT22;11222;50.872;4.312;2023-07-30T01:00:00;16.50;99.90
22112;DHT22;11222;50.872;4.312;2023-07-30T01:02:29;16.50;99.90
22112;DHT22;11222;50.872;4.312;2023-07-30T01:04:55;16.50;99.90
22112;DHT22;11222;50.872;4.312;2023-07-30T01:07:22;16.60;99.90
22112;DHT22;11222;50.872;4.312;2023-07-30T01:09:47;16.70;99.90
22112;DHT22;11222;50.872;4.312;2023-07-30T01:12:13;16.70;99.90
22112;DHT22;11222;50.872;4.312;2023-07-30T01:14:40;16.80;99.90
22112;DHT22;11222;50.872;4.312;2023-07-30T01:17:05;16.80;99.90
22112;DHT22;11222;50.872;4.312;2023-07-30T01:19:31;16.90;99.90
22112;DHT22;11222;50.872;4.312;2023-07-30T01:21:58;16.90;99.90
22112;DHT22;11222;50.872;4.312;2023-07-30T01:24:23;16.90;99.90
22112;DHT22;11222;50.872;4.312;2023-07-30T01:26:57;16.90;99.90
22112;DHT22;11222;50.872;4.312;2023-07-30T01:29:35;16.90;99.90
22112;DHT22;11222;50.872;4.312;2023-07-30T01:32:06;16.90;99.90
22112;DHT22;11222;50.872;4.312;2023-07-30T01:34:35;16.90;99.90
22112;DHT22;11222;50.872;4.312;2023-07-30T01:37:01;16.90;99.90
22112;DHT22;11222;50.872;4.312;2023-07-30T01:39:27;16.90;99.90
22112;DHT22;11222;50.872;4.312;2023-07-30T01:41:54;17.00;99.90
22112;DHT22;11222;50.872;4.312;2023-07-30T01:44:20;17.00;99.90
22112;DHT22;11222;50.872;4.312;2023-07-30T01:46:46;17.00;99.90
22112;DHT22;11222;50.872;4.312;2023-07-30T01:49:12;17.00;99.90
22112;DHT22;11222;50.872;4.312;2023-07-30T01:51:37;17.00;99.90
22112;DHT22;11222;50.872;4.312;2023-07-30T01:54:03;17.10;99.90
22112;DHT22;11222;50.872;4.312;2023-07-30T01:56:29;17.10;99.90
22112;DHT22;11222;50.872;4.312;2023-07-30T01:58:54;17.00;99.90
22112;DHT22;11222;50.872;4.312;2023-07-30T02:01:20;17.00;99.90
22112;DHT22;11222;50.872;4.312;2023-07-30T02:03:46;17.00;99.90
22112;DHT22;11222;50.872;4.312;2023-07-30T02:06:12;17.10;99.90
22112;DHT22;11222;50.872;4.312;2023-07-30T02:08:38;17.00;99.90
22112;DHT22;11222;50.872;4.312;2023-07-30T02:11:04;17.10;99.90
22112;DHT22;11222;50.872;4.312;2023-07-30T02:13:29;17.00;99.90
22112;DHT22;11222;50.872;4.312;2023-07-30T02:15:55;17.10;99.90
22112;DHT22;11222;50.872;4.312;2023-07-30T02:18:21;17.00;99.90
22112;DHT22;11222;50.872;4.312;2023-07-30T02:20:46;17.00;99.90
22112;DHT22;11222;50.872;4.312;2023-07-30T02:23:14;17.10;99.90
22112;DHT22;11222;50.872;4.312;2023-07-30T02:25:40;17.00;99.90
22112;DHT22;11222;50.872;4.312;2023-07-30T02:28:05;16.90;99.90
22112;DHT22;11222;50.872;4.312;2023-07-30T02:30:33;17.00;99.90
22112;DHT22;11222;50.872;4.312;2023-07-30T02:32:59;17.00;99.90
22112;DHT22;11222;50.872;4.312;2023-07-30T02:35:25;17.00;99.90
22112;DHT22;11222;50.872;4.312;2023-07-30T02:37:50;16.90;99.90
22112;DHT22;11222;50.872;4.312;2023-07-30T02:40:16;17.00;99.90
22112;DHT22;11222;50.872;4.312;2023-07-30T02:42:42;16.90;99.90
22112;DHT22;11222;50.872;4.312;2023-07-30T02:45:08;16.90;99.90
22112;DHT22;11222;50.872;4.312;2023-07-30T02:47:34;16.90;99.90
22112;DHT22;11222;50.872;4.312;2023-07-30T02:49:59;16.80;99.90
22112;DHT22;11222;50.872;4.312;2023-07-30T02:52:25;16.80;99.90
22112;DHT22;11222;50.872;4.312;2023-07-30T02:54:51;16.80;99.90
22112;DHT22;11222;50.872;4.312;2023-07-30T02:57:16;16.80;99.90
22112;DHT22;11222;50.872;4.312;2023-07-30T02:59:42;16.70;99.90
22112;DHT22;11222;50.872;4.312;2023-07-30T03:02:07;16.70;99.90
22112;DHT22;11222;50.872;4.312;2023-07-30T03:04:33;16.70;99.90
22112;DHT22;11222;50.872;4.312;2023-07-30T03:06:59;16.70;99.90
22112;DHT22;11222;50.872;4.312;2023-07-30T03:09:25;16.70;99.90
22112;DHT22;11222;50.872;4.312;2023-07-30T03:11:50;16.70;99.90
22112;DHT22;11222;50.872;4.312;2023-07-30T03:14:16;16.70;99.90
22112;DHT22;11222;50.872;4.312;2023-07-30T03:16:48;16.80;99.90
22112;DHT22;11222;50.872;4.312;2023-07-30T03:19:14;16.70;99.90
22112;DHT22;11222;50.872;4.312;2023-07-30T03:21:40;16.70;99.90
22112;DHT22;11222;50.872;4.312;2023-07-30T03:24:06;16.80;99.90
22112;DHT22;11222;50.872;4.312;2023-07-30T03:26:32;16.80;99.90
22112;DHT22;11222;50.872;4.312;2023-07-30T03:28:57;16.80;99.90
22112;DHT22;11222;50.872;4.312;2023-07-30T03:31:23;16.80;99.90
22112;DHT22;11222;50.872;4.312;2023-07-30T03:33:49;16.80;99.90
22112;DHT22;11222;50.872;4.312;2023-07-30T03:36:14;16.90;99.90
22112;DHT22;11222;50.872;4.312;2023-07-30T03:38:41;16.90;99.90
22112;DHT22;11222;50.872;4.312;2023-07-30T03:41:06;16.90;99.90
22112;DHT22;11222;50.872;4.312;2023-07-30T03:43:33;16.90;99.90
22112;DHT22;11222;50.872;4.312;2023-07-30T03:45:59;16.90;99.90
22112;DHT22;11222;50.872;4.312;2023-07-30T03:48:24;16.90;99.90
22112;DHT22;11222;50.872;4.312;2023-07-30T03:50:50;16.90;99.90
22112;DHT22;11222;50.872;4.312;2023-07-30T03:53:16;16.90;99.90
22112;DHT22;11222;50.872;4.312;2023-07-30T03:55:42;16.80;99.90
22112;DHT22;11222;50.872;4.312;2023-07-30T03:58:07;16.80;99.90
22112;DHT22;11222;50.872;4.312;2023-07-30T04:00:33;16.80;99.90
22112;DHT22;11222;50.872;4.312;2023-07-30T04:02:59;16.70;99.90
22112;DHT22;11222;50.872;4.312;2023-07-30T04:05:24;16.70;99.90
22112;DHT22;11222;50.872;4.312;2023-07-30T04:07:50;16.70;99.90
22112;DHT22;11222;50.872;4.312;2023-07-30T04:10:16;16.70;99.90
22112;DHT22;11222;50.872;4.312;2023-07-30T04:12:42;16.60;99.90
22112;DHT22;11222;50.872;4.312;2023-07-30T04:15:07;16.60;99.90
22112;DHT22;11222;50.872;4.312;2023-07-30T04:17:35;16.50;99.90
22112;DHT22;11222;50.872;4.312;2023-07-30T04:20:01;16.50;99.90
22112;DHT22;11222;50.872;4.312;2023-07-30T04:22:26;16.50;99.90
22112;DHT22;11222;50.872;4.312;2023-07-30T04:24:52;16.50;99.90
22112;DHT22;11222;50.872;4.312;2023-07-30T04:27:18;16.40;99.90
22112;DHT22;11222;50.872;4.312;2023-07-30T04:29:43;16.40;99.90
22112;DHT22;11222;50.872;4.312;2023-07-30T04:32:09;16.40;99.90
22112;DHT22;11222;50.872;4.312;2023-07-30T04:34:35;16.30;99.90
22112;DHT22;11222;50.872;4.312;2023-07-30T04:37:00;16.30;99.90
22112;DHT22;11222;50.872;4.312;2023-07-30T04:39:27;16.30;99.90
22112;DHT22;11222;50.872;4.312;2023-07-30T04:41:53;16.20;99.90
22112;DHT22;11222;50.872;4.312;2023-07-30T04:44:18;16.20;99.90
22112;DHT22;11222;50.872;4.312;2023-07-30T04:46:44;16.30;99.90
22112;DHT22;11222;50.872;4.312;2023-07-30T04:49:10;16.30;99.90
22112;DHT22;11222;50.872;4.312;2023-07-30T04:51:35;16.30;99.90
22112;DHT22;11222;50.872;4.312;2023-07-30T04:54:01;16.30;99.90
22112;DHT22;11222;50.872;4.312;2023-07-30T04:56:26;16.40;99.90
22112;DHT22;11222;50.872;4.312;2023-07-30T04:58:53;16.40;99.90
22112;DHT22;11222;50.872;4.312;2023-07-30T05:01:19;16.40;99.90
22112;DHT22;11222;50.872;4.312;2023-07-30T05:03:44;16.40;99.90
22112;DHT22;11222;50.872;4.312;2023-07-30T05:06:10;16.40;99.90
22112;DHT22;11222;50.872;4.312;2023-07-30T05:08:36;16.40;99.90
22112;DHT22;11222;50.872;4.312;2023-07-30T05:11:01;16.40;99.90
22112;DHT22;11222;50.872;4.312;2023-07-30T05:13:27;16.40;99.90
22112;DHT22;11222;50.872;4.312;2023-07-30T05:15:52;16.40;99.90
22112;DHT22;11222;50.872;4.312;2023-07-30T05:18:18;16.40;99.90
22112;DHT22;11222;50.872;4.312;2023-07-30T05:20:46;16.50;99.90
22112;DHT22;11222;50.872;4.312;2023-07-30T05:23:11;16.60;99.90
22112;DHT22;11222;50.872;4.312;2023-07-30T05:25:37;16.60;99.90
22112;DHT22;11222;50.872;4.312;2023-07-30T05:28:03;16.70;99.90
22112;DHT22;11222;50.872;4.312;2023-07-30T05:30:28;16.60;99.90
22112;DHT22;11222;50.872;4.312;2023-07-30T05:32:54;16.60;99.90
22112;DHT22;11222;50.872;4.312;2023-07-30T05:35:20;16.60;99.90
22112;DHT22;11222;50.872;4.312;2023-07-30T05:37:46;16.70;99.90
22112;DHT22;11222;50.872;4.312;2023-07-30T05:40:12;16.70;99.90
22112;DHT22;11222;50.872;4.312;2023-07-30T05:42:38;16.80;99.90
22112;DHT22;11222;50.872;4.312;2023-07-30T05:45:04;16.80;99.90
22112;DHT22;11222;50.872;4.312;2023-07-30T05:47:29;16.90;99.90
22112;DHT22;11222;50.872;4.312;2023-07-30T05:49:55;16.90;99.90
22112;DHT22;11222;50.872;4.312;2023-07-30T05:52:20;16.90;99.90
22112;DHT22;11222;50.872;4.312;2023-07-30T05:54:46;16.80;99.90
22112;DHT22;11222;50.872;4.312;2023-07-30T05:57:12;16.90;99.90
22112;DHT22;11222;50.872;4.312;2023-07-30T05:59:37;16.90;99.90
22112;DHT22;11222;50.872;4.312;2023-07-30T06:02:03;16.90;99.90
22112;DHT22;11222;50.872;4.312;2023-07-30T06:04:30;16.90;99.90
22112;DHT22;11222;50.872;4.312;2023-07-30T06:06:55;16.80;99.90
22112;DHT22;11222;50.872;4.312;2023-07-30T06:09:21;16.80;99.90
22112;DHT22;11222;50.872;4.312;2023-07-30T06:11:46;16.80;99.90
22112;DHT22;11222;50.872;4.312;2023-07-30T06:14:12;16.80;99.90
22112;DHT22;11222;50.872;4.312;2023-07-30T06:16:38;16.80;99.90
22112;DHT22;11222;50.872;4.312;2023-07-30T06:19:03;16.80;99.90
22112;DHT22;11222;50.872;4.312;2023-07-30T06:21:29;16.70;99.90
22112;DHT22;11222;50.872;4.312;2023-07-30T06:23:55;16.70;99.90
22112;DHT22;11222;50.872;4.312;2023-07-30T06:26:20;16.70;99.90
22112;DHT22;11222;50.872;4.312;2023-07-30T06:28:46;16.80;99.90
22112;DHT22;11222;50.872;4.312;2023-07-30T06:31:11;16.90;99.90
22112;DHT22;11222;50.872;4.312;2023-07-30T06:33:37;17.00;99.90
22112;DHT22;11222;50.872;4.312;2023-07-30T06:36:04;17.10;99.90
22112;DHT22;11222;50.872;4.312;2023-07-30T06:38:29;17.10;99.90
22112;DHT22;11222;50.872;4.312;2023-07-30T06:40:55;17.10;99.90
22112;DHT22;11222;50.872;4.312;2023-07-30T06:43:23;17.20;99.90
22112;DHT22;11222;50.872;4.312;2023-07-30T06:45:49;17.20;99.90
22112;DHT22;11222;50.872;4.312;2023-07-30T06:48:15;17.20;99.90
22112;DHT22;11222;50.872;4.312;2023-07-30T06:50:43;17.20;99.90
22112;DHT22;11222;50.872;4.312;2023-07-30T06:53:08;17.00;99.90
22112;DHT22;11222;50.872;4.312;2023-07-30T06:55:34;17.00;99.90
22112;DHT22;11222;50.872;4.312;2023-07-30T06:58:00;17.10;99.90
22112;DHT22;11222;50.872;4.312;2023-07-30T07:00:25;17.20;99.90
22112;DHT22;11222;50.872;4.312;2023-07-30T07:02:51;17.30;99.90
22112;DHT22;11222;50.872;4.312;2023-07-30T07:05:17;17.30;99.90
22112;DHT22;11222;50.872;4.312;2023-07-30T07:07:42;17.40;99.90
22112;DHT22;11222;50.872;4.312;2023-07-30T07:10:08;17.50;99.90
22112;DHT22;11222;50.872;4.312;2023-07-30T07:12:36;17.70;99.90
22112;DHT22;11222;50.872;4.312;2023-07-30T07:15:04;17.80;99.90
22112;DHT22;11222;50.872;4.312;2023-07-30T07:17:29;18.00;99.90
22112;DHT22;11222;50.872;4.312;2023-07-30T07:19:56;18.20;99.90
22112;DHT22;11222;50.872;4.312;2023-07-30T07:22:21;18.00;99.90
22112;DHT22;11222;50.872;4.312;2023-07-30T07:24:47;18.20;99.90
22112;DHT22;11222;50.872;4.312;2023-07-30T07:27:13;18.40;99.90
22112;DHT22;11222;50.872;4.312;2023-07-30T07:29:39;18.70;99.90
22112;DHT22;11222;50.872;4.312;2023-07-30T07:32:05;18.70;99.90
22112;DHT22;11222;50.872;4.312;2023-07-30T07:34:31;18.80;99.90
22112;DHT22;11222;50.872;4.312;2023-07-30T07:36:56;18.60;99.90
22112;DHT22;11222;50.872;4.312;2023-07-30T07:39:22;18.70;99.90
22112;DHT22;11222;50.872;4.312;2023-07-30T07:41:48;18.80;99.90
22112;DHT22;11222;50.872;4.312;2023-07-30T07:44:13;18.90;99.90
22112;DHT22;11222;50.872;4.312;2023-07-30T07:46:39;18.90;99.90
22112;DHT22;11222;50.872;4.312;2023-07-30T07:49:04;19.00;99.90
22112;DHT22;11222;50.872;4.312;2023-07-30T07:51:31;18.80;99.90
22112;DHT22;11222;50.872;4.312;2023-07-30T07:53:57;18.70;99.90
22112;DHT22;11222;50.872;4.312;2023-07-30T07:56:23;19.00;99.90
22112;DHT22;11222;50.872;4.312;2023-07-30T07:58:49;19.30;99.90
22112;DHT22;11222;50.872;4.312;2023-07-30T08:01:14;19.40;99.90
22112;DHT22;11222;50.872;4.312;2023-07-30T08:03:40;19.50;99.90
22112;DHT22;11222;50.872;4.312;2023-07-30T08:06:06;19.20;99.90
22112;DHT22;11222;50.872;4.312;2023-07-30T08:08:31;18.90;99.90
22112;DHT22;11222;50.872;4.312;2023-07-30T08:10:57;19.10;99.90
22112;DHT22;11222;50.872;4.312;2023-07-30T08:13:23;19.30;99.90
22112;DHT22;11222;50.872;4.312;2023-07-30T08:15:49;19.50;99.90
22112;DHT22;11222;50.872;4.312;2023-07-30T08:18:14;19.60;99.90
22112;DHT22;11222;50.872;4.312;2023-07-30T08:20:40;20.00;99.90
22112;DHT22;11222;50.872;4.312;2023-07-30T08:23:05;20.10;99.90
22112;DHT22;11222;50.872;4.312;2023-07-30T08:25:32;19.90;99.90
22112;DHT22;11222;50.872;4.312;2023-07-30T08:27:57;19.40;99.90
22112;DHT22;11222;50.872;4.312;2023-07-30T08:30:23;19.30;99.90
22112;DHT22;11222;50.872;4.312;2023-07-30T08:32:49;19.50;99.90
22112;DHT22;11222;50.872;4.312;2023-07-30T08:35:14;19.80;99.90
22112;DHT22;11222;50.872;4.312;2023-07-30T08:37:40;21.20;99.90
22112;DHT22;11222;50.872;4.312;2023-07-30T08:40:06;21.40;99.90
22112;DHT22;11222;50.872;4.312;2023-07-30T08:42:32;20.70;99.90
22112;DHT22;11222;50.872;4.312;2023-07-30T08:44:59;20.30;99.90
22112;DHT22;11222;50.872;4.312;2023-07-30T08:47:25;19.80;99.90
22112;DHT22;11222;50.872;4.312;2023-07-30T08:49:51;19.50;99.90
22112;DHT22;11222;50.872;4.312;2023-07-30T08:52:17;19.40;99.90
22112;DHT22;11222;50.872;4.312;2023-07-30T08:54:44;19.00;99.90
22112;DHT22;11222;50.872;4.312;2023-07-30T08:57:12;18.80;99.90
22112;DHT22;11222;50.872;4.312;2023-07-30T08:59:42;19.00;99.90
22112;DHT22;11222;50.872;4.312;2023-07-30T09:02:15;19.00;99.90
22112;DHT22;11222;50.872;4.312;2023-07-30T09:04:43;18.90;99.90
22112;DHT22;11222;50.872;4.312;2023-07-30T09:07:13;19.10;99.90
22112;DHT22;11222;50.872;4.312;2023-07-30T09:09:39;19.00;99.90
22112;DHT22;11222;50.872;4.312;2023-07-30T09:12:13;19.00;99.90
22112;DHT22;11222;50.872;4.312;2023-07-30T09:14:39;19.50;99.90
22112;DHT22;11222;50.872;4.312;2023-07-30T09:17:05;19.70;99.90
22112;DHT22;11222;50.872;4.312;2023-07-30T09:19:35;19.60;99.90
22112;DHT22;11222;50.872;4.312;2023-07-30T09:22:07;19.50;99.90
22112;DHT22;11222;50.872;4.312;2023-07-30T09:24:33;19.30;99.90
22112;DHT22;11222;50.872;4.312;2023-07-30T09:27:02;18.90;99.90
22112;DHT22;11222;50.872;4.312;2023-07-30T09:29:28;18.80;99.90
22112;DHT22;11222;50.872;4.312;2023-07-30T09:31:54;18.60;99.90
22112;DHT22;11222;50.872;4.312;2023-07-30T09:34:22;18.80;99.90
22112;DHT22;11222;50.872;4.312;2023-07-30T09:36:50;19.30;99.90
22112;DHT22;11222;50.872;4.312;2023-07-30T09:39:17;19.50;99.90
22112;DHT22;11222;50.872;4.312;2023-07-30T09:41:44;19.50;99.90
22112;DHT22;11222;50.872;4.312;2023-07-30T09:44:11;19.60;99.90
22112;DHT22;11222;50.872;4.312;2023-07-30T09:46:48;19.40;99.90
22112;DHT22;11222;50.872;4.312;2023-07-30T09:49:15;19.00;99.90
22112;DHT22;11222;50.872;4.312;2023-07-30T09:51:41;18.40;99.90
22112;DHT22;11222;50.872;4.312;2023-07-30T09:54:09;18.20;99.90
22112;DHT22;11222;50.872;4.312;2023-07-30T09:56:36;17.80;99.90
22112;DHT22;11222;50.872;4.312;2023-07-30T09:59:06;17.80;99.90
22112;DHT22;11222;50.872;4.312;2023-07-30T10:01:43;17.70;99.90
22112;DHT22;11222;50.872;4.312;2023-07-30T10:04:10;17.60;99.90
22112;DHT22;11222;50.872;4.312;2023-07-30T10:06:42;17.80;99.90
22112;DHT22;11222;50.872;4.312;2023-07-30T10:09:12;17.90;99.90
22112;DHT22;11222;50.872;4.312;2023-07-30T10:11:40;18.10;99.90
22112;DHT22;11222;50.872;4.312;2023-07-30T10:14:07;18.20;99.90
22112;DHT22;11222;50.872;4.312;2023-07-30T10:16:32;18.60;99.90
22112;DHT22;11222;50.872;4.312;2023-07-30T10:18:58;20.10;99.90
22112;DHT22;11222;50.872;4.312;2023-07-30T10:21:26;20.60;99.90
22112;DHT22;11222;50.872;4.312;2023-07-30T10:24:01;21.80;99.90
22112;DHT22;11222;50.872;4.312;2023-07-30T10:26:28;23.30;99.90
22112;DHT22;11222;50.872;4.312;2023-07-30T10:29:13;24.00;99.90
22112;DHT22;11222;50.872;4.312;2023-07-30T10:31:40;24.30;99.90
22112;DHT22;11222;50.872;4.312;2023-07-30T10:34:10;22.90;99.90
22112;DHT22;11222;50.872;4.312;2023-07-30T10:36:47;21.30;99.90
22112;DHT22;11222;50.872;4.312;2023-07-30T10:39:15;21.10;99.90
22112;DHT22;11222;50.872;4.312;2023-07-30T10:41:44;21.40;99.90
22112;DHT22;11222;50.872;4.312;2023-07-30T10:44:26;20.80;99.90
22112;DHT22;11222;50.872;4.312;2023-07-30T10:46:53;20.60;99.90
22112;DHT22;11222;50.872;4.312;2023-07-30T10:49:19;20.10;99.90
22112;DHT22;11222;50.872;4.312;2023-07-30T10:51:45;21.00;99.90
22112;DHT22;11222;50.872;4.312;2023-07-30T10:54:10;22.20;99.90
22112;DHT22;11222;50.872;4.312;2023-07-30T10:56:37;22.30;99.90
22112;DHT22;11222;50.872;4.312;2023-07-30T10:59:07;23.50;99.90
22112;DHT22;11222;50.872;4.312;2023-07-30T11:01:43;24.10;99.90
22112;DHT22;11222;50.872;4.312;2023-07-30T11:04:16;24.30;99.90
22112;DHT22;11222;50.872;4.312;2023-07-30T11:06:46;25.00;99.90
22112;DHT22;11222;50.872;4.312;2023-07-30T11:09:24;24.50;99.90
22112;DHT22;11222;50.872;4.312;2023-07-30T11:11:51;25.10;99.90
22112;DHT22;11222;50.872;4.312;2023-07-30T11:14:18;24.10;99.90
22112;DHT22;11222;50.872;4.312;2023-07-30T11:16:49;23.60;99.90
22112;DHT22;11222;50.872;4.312;2023-07-30T11:19:15;24.40;99.90
22112;DHT22;11222;50.872;4.312;2023-07-30T11:21:45;24.70;99.90
22112;DHT22;11222;50.872;4.312;2023-07-30T11:24:11;24.70;99.90
22112;DHT22;11222;50.872;4.312;2023-07-30T11:26:37;23.80;99.90
22112;DHT22;11222;50.872;4.312;2023-07-30T11:29:17;23.60;99.90
22112;DHT22;11222;50.872;4.312;2023-07-30T11:31:43;23.50;99.90
22112;DHT22;11222;50.872;4.312;2023-07-30T11:34:09;24.20;99.90
22112;DHT22;11222;50.872;4.312;2023-07-30T11:36:35;24.00;99.90
22112;DHT22;11222;50.872;4.312;2023-07-30T11:39:01;25.00;99.90
22112;DHT22;11222;50.872;4.312;2023-07-30T11:41:27;25.80;99.90
22112;DHT22;11222;50.872;4.312;2023-07-30T11:43:54;27.10;99.90
22112;DHT22;11222;50.872;4.312;2023-07-30T11:46:20;28.10;99.90
22112;DHT22;11222;50.872;4.312;2023-07-30T11:48:49;27.80;99.90
22112;DHT22;11222;50.872;4.312;2023-07-30T11:51:26;26.40;99.90
22112;DHT22;11222;50.872;4.312;2023-07-30T11:53:55;25.60;99.90
22112;DHT22;11222;50.872;4.312;2023-07-30T11:56:25;26.20;99.90
22112;DHT22;11222;50.872;4.312;2023-07-30T11:58:59;25.80;99.90
22112;DHT22;11222;50.872;4.312;2023-07-30T12:01:26;25.40;99.90
22112;DHT22;11222;50.872;4.312;2023-07-30T12:03:56;24.80;99.90
22112;DHT22;11222;50.872;4.312;2023-07-30T12:06:22;24.70;99.90
22112;DHT22;11222;50.872;4.312;2023-07-30T12:08:49;24.10;99.90
22112;DHT22;11222;50.872;4.312;2023-07-30T12:11:17;24.70;99.90
22112;DHT22;11222;50.872;4.312;2023-07-30T12:13:45;24.70;99.90
22112;DHT22;11222;50.872;4.312;2023-07-30T12:16:12;24.40;99.90
22112;DHT22;11222;50.872;4.312;2023-07-30T12:18:38;23.90;99.90
22112;DHT22;11222;50.872;4.312;2023-07-30T12:21:05;23.70;99.90
22112;DHT22;11222;50.872;4.312;2023-07-30T12:23:33;23.20;99.90
22112;DHT22;11222;50.872;4.312;2023-07-30T12:25:59;23.30;99.90
22112;DHT22;11222;50.872;4.312;2023-07-30T12:28:25;23.10;99.90
22112;DHT22;11222;50.872;4.312;2023-07-30T12:30:51;23.10;99.90
22112;DHT22;11222;50.872;4.312;2023-07-30T12:33:16;22.90;99.90
22112;DHT22;11222;50.872;4.312;2023-07-30T12:35:42;22.70;99.90
22112;DHT22;11222;50.872;4.312;2023-07-30T12:38:08;22.60;99.90
22112;DHT22;11222;50.872;4.312;2023-07-30T12:40:33;22.50;99.90
22112;DHT22;11222;50.872;4.312;2023-07-30T12:43:02;22.50;99.90
22112;DHT22;11222;50.872;4.312;2023-07-30T12:45:29;22.50;99.90
22112;DHT22;11222;50.872;4.312;2023-07-30T12:47:55;22.50;99.90
22112;DHT22;11222;50.872;4.312;2023-07-30T12:50:21;22.70;99.90
22112;DHT22;11222;50.872;4.312;2023-07-30T12:52:46;22.70;99.90
22112;DHT22;11222;50.872;4.312;2023-07-30T12:55:12;22.80;99.90
22112;DHT22;11222;50.872;4.312;2023-07-30T12:57:38;23.00;99.90
22112;DHT22;11222;50.872;4.312;2023-07-30T13:00:04;22.90;99.90
22112;DHT22;11222;50.872;4.312;2023-07-30T13:02:30;23.10;99.90
22112;DHT22;11222;50.872;4.312;2023-07-30T13:04:59;23.10;99.90
22112;DHT22;11222;50.872;4.312;2023-07-30T13:07:25;22.80;99.90
22112;DHT22;11222;50.872;4.312;2023-07-30T13:10:03;22.80;99.90
22112;DHT22;11222;50.872;4.312;2023-07-30T13:12:29;22.90;99.90
22112;DHT22;11222;50.872;4.312;2023-07-30T13:14:54;23.00;99.90
22112;DHT22;11222;50.872;4.312;2023-07-30T13:17:20;22.90;99.90
22112;DHT22;11222;50.872;4.312;2023-07-30T13:19:46;22.70;99.90
22112;DHT22;11222;50.872;4.312;2023-07-30T13:22:11;22.60;99.90
22112;DHT22;11222;50.872;4.312;2023-07-30T13:24:37;22.60;99.90
22112;DHT22;11222;50.872;4.312;2023-07-30T13:27:03;22.60;99.90
22112;DHT22;11222;50.872;4.312;2023-07-30T13:29:28;22.60;99.90
22112;DHT22;11222;50.872;4.312;2023-07-30T13:31:54;22.70;99.90
22112;DHT22;11222;50.872;4.312;2023-07-30T13:34:20;22.70;99.90
22112;DHT22;11222;50.872;4.312;2023-07-30T13:36:45;22.60;99.90
22112;DHT22;11222;50.872;4.312;2023-07-30T13:39:11;22.70;99.90
22112;DHT22;11222;50.872;4.312;2023-07-30T13:41:36;22.80;99.90
22112;DHT22;11222;50.872;4.312;2023-07-30T13:44:02;22.90;99.90
22112;DHT22;11222;50.872;4.312;2023-07-30T13:46:28;22.80;99.90
22112;DHT22;11222;50.872;4.312;2023-07-30T13:48:53;22.80;99.90
22112;DHT22;11222;50.872;4.312;2023-07-30T13:51:19;22.80;99.90
22112;DHT22;11222;50.872;4.312;2023-07-30T13:53:45;22.70;99.90
22112;DHT22;11222;50.872;4.312;2023-07-30T13:56:10;22.70;99.90
22112;DHT22;11222;50.872;4.312;2023-07-30T13:58:36;22.50;99.90
22112;DHT22;11222;50.872;4.312;2023-07-30T14:01:05;22.50;99.90
22112;DHT22;11222;50.872;4.312;2023-07-30T14:03:32;22.70;99.90
22112;DHT22;11222;50.872;4.312;2023-07-30T14:05:57;22.70;99.90
22112;DHT22;11222;50.872;4.312;2023-07-30T14:08:23;22.70;99.90
22112;DHT22;11222;50.872;4.312;2023-07-30T14:10:49;22.60;99.90
22112;DHT22;11222;50.872;4.312;2023-07-30T14:13:14;22.70;99.90
22112;DHT22;11222;50.872;4.312;2023-07-30T14:15:40;22.60;99.90
22112;DHT22;11222;50.872;4.312;2023-07-30T14:18:07;22.40;99.90
22112;DHT22;11222;50.872;4.312;2023-07-30T14:20:33;22.20;99.90
22112;DHT22;11222;50.872;4.312;2023-07-30T14:23:00;22.00;99.90
22112;DHT22;11222;50.872;4.312;2023-07-30T14:25:26;21.80;99.90
22112;DHT22;11222;50.872;4.312;2023-07-30T14:27:52;21.80;99.90
22112;DHT22;11222;50.872;4.312;2023-07-30T14:30:18;22.00;99.90
22112;DHT22;11222;50.872;4.312;2023-07-30T14:32:43;22.30;99.90
22112;DHT22;11222;50.872;4.312;2023-07-30T14:35:09;22.70;99.90
22112;DHT22;11222;50.872;4.312;2023-07-30T14:37:35;22.70;99.90
22112;DHT22;11222;50.872;4.312;2023-07-30T14:40:00;22.60;99.90
22112;DHT22;11222;50.872;4.312;2023-07-30T14:42:26;22.60;99.90
22112;DHT22;11222;50.872;4.312;2023-07-30T14:44:52;22.50;99.90
22112;DHT22;11222;50.872;4.312;2023-07-30T14:47:17;22.60;99.90
22112;DHT22;11222;50.872;4.312;2023-07-30T14:49:44;22.40;99.90
22112;DHT22;11222;50.872;4.312;2023-07-30T14:52:09;22.50;99.90
22112;DHT22;11222;50.872;4.312;2023-07-30T14:54:35;22.30;99.90
22112;DHT22;11222;50.872;4.312;2023-07-30T14:57:01;22.10;99.90
22112;DHT22;11222;50.872;4.312;2023-07-30T14:59:27;22.00;99.90
22112;DHT22;11222;50.872;4.312;2023-07-30T15:01:52;21.90;99.90
22112;DHT22;11222;50.872;4.312;2023-07-30T15:04:18;21.60;99.90
22112;DHT22;11222;50.872;4.312;2023-07-30T15:06:44;21.50;99.90
22112;DHT22;11222;50.872;4.312;2023-07-30T15:09:10;21.60;99.90
22112;DHT22;11222;50.872;4.312;2023-07-30T15:11:36;21.80;99.90
22112;DHT22;11222;50.872;4.312;2023-07-30T15:14:01;21.80;99.90
22112;DHT22;11222;50.872;4.312;2023-07-30T15:16:27;21.70;99.90
22112;DHT22;11222;50.872;4.312;2023-07-30T15:18:53;21.50;99.90
22112;DHT22;11222;50.872;4.312;2023-07-30T15:21:19;21.20;99.90
22112;DHT22;11222;50.872;4.312;2023-07-30T15:23:45;21.10;99.90
22112;DHT22;11222;50.872;4.312;2023-07-30T15:26:11;21.00;99.90